createdAt,value
2023-04-28T03:46:25.984Z,838.10
2023-04-28T03:48:53.554Z,833.50
2023-04-28T03:51:20.344Z,829.42
2023-04-28T03:53:47.101Z,830.03
2023-04-28T03:56:13.799Z,832.30
2023-04-28T03:58:41.122Z,830.33
2023-04-28T04:01:07.764Z,830.63
2023-04-28T04:03:34.636Z,834.73
2023-04-28T04:06:01.947Z,837.90
2023-04-28T04:08:28.838Z,828.05
2023-04-28T04:10:55.930Z,833.40
2023-04-28T04:13:22.952Z,833.97
2023-04-28T04:15:50.689Z,829.85
2023-04-28T04:18:17.438Z,840.50
2023-04-28T04:20:44.215Z,829.05
2023-04-28T04:23:10.914Z,836.35
2023-04-28T04:25:37.630Z,831.97
2023-04-28T04:28:04.573Z,838.03
2023-04-28T04:30:31.374Z,832.50
2023-04-28T04:32:58.094Z,829.20
2023-04-28T04:35:24.964Z,830.17
2023-04-28T04:37:51.817Z,832.40
2023-04-28T04:40:18.528Z,835.80
2023-04-28T04:42:45.355Z,827.47
2023-04-28T04:45:12.346Z,824.07
2023-04-28T04:47:39.239Z,832.53
2023-04-28T04:50:06.978Z,828.20
2023-04-28T04:52:33.692Z,821.17
2023-04-28T04:55:00.433Z,820.08
2023-04-28T04:57:27.251Z,822.83
2023-04-28T04:59:54.039Z,823.25
2023-04-28T05:02:20.845Z,824.55
2023-04-28T05:04:47.740Z,824.00
2023-04-28T05:07:14.468Z,822.72
2023-04-28T05:09:41.152Z,813.90
2023-04-28T05:12:08.113Z,820.33
2023-04-28T05:14:35.087Z,824.90
2023-04-28T05:17:01.809Z,818.70
2023-04-28T05:19:28.539Z,826.13
2023-04-28T05:21:55.317Z,822.15
2023-04-28T05:24:25.311Z,829.00
2023-04-28T05:26:52.832Z,827.83
2023-04-28T05:29:20.033Z,831.28
2023-04-28T05:31:46.831Z,833.97
2023-04-28T05:34:13.573Z,831.42
2023-04-28T05:36:40.628Z,842.13
2023-04-28T05:39:07.460Z,834.25
2023-04-28T05:41:36.578Z,827.40
2023-04-28T05:44:03.974Z,834.45
2023-04-28T05:46:31.456Z,830.55
2023-04-28T05:48:58.370Z,831.83
2023-04-28T05:51:25.411Z,837.70
2023-04-28T05:53:52.126Z,838.17
2023-04-28T05:56:19.210Z,835.35
2023-04-28T05:58:46.525Z,834.53
2023-04-28T06:01:13.519Z,843.78
2023-04-28T06:03:42.113Z,838.67
2023-04-28T06:06:12.897Z,840.78
2023-04-28T06:08:40.136Z,839.97
2023-04-28T06:11:07.088Z,839.47
2023-04-28T06:13:33.774Z,831.47
2023-04-28T06:16:00.718Z,829.78
2023-04-28T06:18:27.589Z,832.72
2023-04-28T06:20:54.255Z,840.63
2023-04-28T06:23:21.050Z,837.97
2023-04-28T06:25:48.190Z,853.47
2023-04-28T06:28:15.115Z,838.65
2023-04-28T06:30:42.020Z,837.67
2023-04-28T06:33:09.092Z,835.53
2023-04-28T06:35:38.373Z,835.13
2023-04-28T06:38:06.048Z,844.15
2023-04-28T06:40:32.699Z,842.22
2023-04-28T06:42:59.381Z,846.03
2023-04-28T06:45:26.418Z,845.65
2023-04-28T06:47:55.868Z,837.38
2023-04-28T06:50:24.008Z,850.17
2023-04-28T06:52:50.990Z,846.90
2023-04-28T06:55:17.984Z,849.22
2023-04-28T06:57:44.987Z,845.13
2023-04-28T07:00:12.798Z,847.63
2023-04-28T07:02:39.736Z,841.03
2023-04-28T07:05:06.946Z,847.65
2023-04-28T07:07:33.632Z,849.92
2023-04-28T07:10:01.088Z,844.30
2023-04-28T07:12:28.136Z,847.25
2023-04-28T07:14:55.803Z,850.90
2023-04-28T07:17:22.589Z,848.72
2023-04-28T07:19:50.932Z,850.88
2023-04-28T07:22:18.278Z,852.05
2023-04-28T07:24:45.121Z,852.53
2023-04-28T07:27:11.819Z,852.33
2023-04-28T07:29:38.583Z,861.10
2023-04-28T07:32:08.201Z,848.72
2023-04-28T07:34:38.329Z,862.00
2023-04-28T07:37:05.262Z,854.90
2023-04-28T07:39:34.763Z,854.77
2023-04-28T07:42:03.151Z,850.70
2023-04-28T07:44:30.480Z,844.63
2023-04-28T07:46:57.488Z,849.70
2023-04-28T07:49:24.215Z,847.42
2023-04-28T07:51:53.561Z,835.78
2023-04-28T07:54:20.377Z,836.17
2023-04-28T07:56:47.378Z,834.85
2023-04-28T07:59:14.709Z,827.75
2023-04-28T08:01:42.922Z,832.13
2023-04-28T08:04:10.041Z,834.17
2023-04-28T08:06:36.910Z,837.78
2023-04-28T08:09:05.912Z,836.63
2023-04-28T08:11:33.449Z,841.08
2023-04-28T08:14:02.923Z,840.42
2023-04-28T08:16:30.862Z,845.65
2023-04-28T08:18:58.307Z,835.65
2023-04-28T08:21:25.153Z,832.75
2023-04-28T08:23:51.838Z,847.00
2023-04-28T08:26:18.601Z,848.83
2023-04-28T08:28:45.356Z,846.45
2023-04-28T08:31:12.117Z,844.45
2023-04-28T08:33:39.048Z,839.53
2023-04-28T08:36:06.361Z,841.35
2023-04-28T08:38:33.180Z,843.97
2023-04-28T08:40:59.892Z,840.63
2023-04-28T08:43:28.483Z,841.40
2023-04-28T08:45:55.371Z,849.88
2023-04-28T08:48:22.963Z,849.65
2023-04-28T08:50:52.585Z,852.55
2023-04-28T08:53:25.205Z,858.35
2023-04-28T08:55:56.459Z,859.00
2023-04-28T08:58:24.837Z,870.95
2023-04-28T09:00:52.930Z,875.70
2023-04-28T09:03:20.144Z,873.72
2023-04-28T09:05:47.339Z,876.67
2023-04-28T09:08:14.178Z,880.00
2023-04-28T09:10:41.450Z,885.58
2023-04-28T09:13:08.166Z,868.10
2023-04-28T09:15:37.369Z,870.97
2023-04-28T09:18:06.193Z,866.25
2023-04-28T09:20:34.342Z,870.08
2023-04-28T09:23:19.392Z,866.38
2023-04-28T09:26:07.546Z,864.95
2023-04-28T09:28:35.769Z,864.83
2023-04-28T09:31:02.986Z,867.40
2023-04-28T09:33:30.061Z,867.72
2023-04-28T09:35:56.855Z,863.67
2023-04-28T09:38:23.974Z,863.90
2023-04-28T09:40:56.777Z,856.55
2023-04-28T09:43:32.232Z,846.13
2023-04-28T09:46:01.559Z,849.10
2023-04-28T09:48:32.350Z,852.03
2023-04-28T09:51:01.023Z,851.45
2023-04-28T09:53:28.987Z,863.83
2023-04-28T09:55:58.264Z,856.60
2023-04-28T09:58:26.306Z,865.80
2023-04-28T10:00:58.077Z,864.53
2023-04-28T10:03:30.611Z,870.53
2023-04-28T10:05:58.976Z,890.37
2023-04-28T10:08:27.440Z,901.67
2023-04-28T10:10:54.696Z,899.20
2023-04-28T10:13:22.688Z,895.90
2023-04-28T10:15:50.735Z,897.72
2023-04-28T10:18:18.415Z,899.78
2023-04-28T10:20:57.588Z,897.78
2023-04-28T10:24:21.329Z,896.13
2023-04-28T10:27:08.732Z,883.45
2023-04-28T10:29:36.572Z,872.78
2023-04-28T10:32:19.537Z,874.75
2023-04-28T10:34:47.057Z,875.70
2023-04-28T10:37:18.910Z,886.92
2023-04-28T10:40:27.561Z,889.00
2023-04-28T10:42:56.540Z,874.47
2023-04-28T10:45:56.520Z,891.20
2023-04-28T10:48:46.850Z,893.42
2023-04-28T10:51:16.628Z,881.80
2023-04-28T10:53:47.075Z,886.80
2023-04-28T10:56:25.194Z,889.70
2023-04-28T10:58:56.402Z,891.47
2023-04-28T11:01:30.792Z,894.60
2023-04-28T11:04:13.933Z,882.90
2023-04-28T11:06:41.804Z,894.33
2023-04-28T11:09:20.980Z,894.03
2023-04-28T11:11:59.837Z,890.30
2023-04-28T11:14:29.971Z,887.08
2023-04-28T11:17:00.548Z,886.22
2023-04-28T11:19:39.260Z,892.50
2023-04-28T11:22:20.487Z,888.22
2023-04-28T11:24:58.025Z,888.03
2023-04-28T11:27:28.763Z,890.83
2023-04-28T11:29:56.003Z,898.60
2023-04-28T11:32:35.586Z,878.17
2023-04-28T11:35:04.568Z,880.22
2023-04-28T11:37:31.468Z,893.47
2023-04-28T11:39:58.195Z,899.72
2023-04-28T11:42:27.113Z,900.20
2023-04-28T11:44:54.945Z,901.88
2023-04-28T11:47:34.903Z,905.92
2023-04-28T11:50:02.833Z,902.30
2023-04-28T11:52:29.613Z,906.90
2023-04-28T11:54:59.109Z,906.13
2023-04-28T11:57:26.720Z,909.28
2023-04-28T11:59:53.582Z,908.70
2023-04-28T12:02:28.987Z,915.27
2023-04-28T12:04:56.390Z,913.20
2023-04-28T12:07:23.720Z,918.22
2023-04-28T12:10:16.719Z,914.17
2023-04-28T12:12:50.884Z,911.60
2023-04-28T12:15:20.747Z,913.10
2023-04-28T12:17:48.350Z,914.08
2023-04-28T12:20:38.689Z,912.45
2023-04-28T12:23:06.154Z,911.23
2023-04-28T12:25:34.925Z,923.90
2023-04-28T12:28:07.640Z,913.50
2023-04-28T12:30:42.304Z,916.25
2023-04-28T12:33:24.236Z,921.27
2023-04-28T12:35:50.953Z,926.90
2023-04-28T12:38:18.002Z,926.90
2023-04-28T12:40:44.744Z,931.55
2023-04-28T12:43:11.443Z,923.28
2023-04-28T12:45:38.995Z,923.53
2023-04-28T12:48:06.488Z,930.40
2023-04-28T12:50:33.592Z,927.97
2023-04-28T12:53:00.374Z,933.47
2023-04-28T12:55:27.189Z,929.33
2023-04-28T12:57:55.305Z,936.35
2023-04-28T13:00:23.549Z,938.15
2023-04-28T13:02:53.221Z,927.95
2023-04-28T13:05:20.115Z,925.58
2023-04-28T13:07:47.686Z,948.80
2023-04-28T13:10:14.387Z,950.70
2023-04-28T13:12:41.506Z,951.03
2023-04-28T13:15:09.018Z,958.40
2023-04-28T13:17:35.780Z,948.58
2023-04-28T13:20:03.808Z,953.95
2023-04-28T13:22:30.620Z,952.03
2023-04-28T13:24:57.639Z,955.95
2023-04-28T13:27:24.413Z,959.45
2023-04-28T13:29:51.619Z,969.55
2023-04-28T13:32:18.483Z,975.10
2023-04-28T13:34:45.430Z,980.67
2023-04-28T13:37:12.205Z,982.25
2023-04-28T13:39:38.803Z,981.20
2023-04-28T13:42:06.817Z,973.35
2023-04-28T13:44:33.635Z,967.03
2023-04-28T13:47:00.356Z,967.65
2023-04-28T13:49:27.027Z,962.35
2023-04-28T13:51:53.623Z,961.30
2023-04-28T13:54:21.275Z,968.78
2023-04-28T13:56:48.196Z,975.10
2023-04-28T13:59:14.930Z,977.47
2023-04-28T14:01:41.628Z,982.55
2023-04-28T14:04:08.441Z,980.87
2023-04-28T14:06:35.369Z,982.85
2023-04-28T14:09:03.355Z,974.22
2023-04-28T14:11:30.019Z,980.63
2023-04-28T14:13:57.390Z,977.83
2023-04-28T14:16:24.139Z,979.47
2023-04-28T14:18:51.046Z,981.35
2023-04-28T14:21:17.726Z,975.45
2023-04-28T14:23:44.331Z,982.50
2023-04-28T14:26:11.677Z,982.88
2023-04-28T14:28:38.523Z,982.70
2023-04-28T14:31:09.230Z,974.55
2023-04-28T14:33:36.707Z,983.38
2023-04-28T14:36:03.982Z,978.13
2023-04-28T14:38:30.858Z,975.53
2023-04-28T14:40:57.841Z,977.42
2023-04-28T14:43:24.786Z,979.75
2023-04-28T14:45:51.909Z,984.22
2023-04-28T14:48:19.092Z,986.80
2023-04-28T14:50:46.209Z,989.22
2023-04-28T14:53:12.927Z,988.03
2023-04-28T14:55:39.612Z,983.88
2023-04-28T14:58:06.239Z,982.63
2023-04-28T15:00:33.218Z,980.95
2023-04-28T15:03:00.084Z,983.40
2023-04-28T15:05:27.182Z,990.72
2023-04-28T15:07:53.864Z,983.17
2023-04-28T15:10:21.159Z,983.75
2023-04-28T15:12:48.811Z,984.33
2023-04-28T15:15:15.421Z,989.45
2023-04-28T15:17:42.134Z,976.47
2023-04-28T15:20:09.363Z,979.47
2023-04-28T15:22:37.350Z,980.90
2023-04-28T15:25:04.158Z,978.22
2023-04-28T15:27:31.035Z,978.22
2023-04-28T15:29:57.799Z,975.10
2023-04-28T15:32:24.700Z,977.38
2023-04-28T15:34:51.682Z,973.28
2023-04-28T15:37:38.929Z,971.58
2023-04-28T15:40:06.471Z,967.33
2023-04-28T15:42:33.987Z,970.70
2023-04-28T15:45:02.397Z,968.53
2023-04-28T15:47:33.192Z,972.13
2023-04-28T15:49:59.991Z,976.55
2023-04-28T15:52:27.112Z,972.92
2023-04-28T15:54:55.909Z,975.33
2023-04-28T15:57:22.699Z,970.53
2023-04-28T15:59:49.501Z,967.97
2023-04-28T16:02:16.477Z,974.88
2023-04-28T16:04:43.308Z,971.80
2023-04-28T16:07:10.143Z,974.67
2023-04-28T16:09:36.762Z,972.95
2023-04-28T16:12:04.225Z,973.95
2023-04-28T16:14:31.130Z,973.63
2023-04-28T16:16:57.974Z,974.15
2023-04-28T16:19:25.844Z,972.13
2023-04-28T16:21:52.523Z,971.78
2023-04-28T16:24:22.154Z,974.67
2023-04-28T16:26:48.792Z,971.70
2023-04-28T16:29:15.425Z,971.55
2023-04-28T16:31:42.183Z,964.20
2023-04-28T16:34:08.898Z,973.58
2023-04-28T16:36:35.503Z,968.40
2023-04-28T16:39:02.073Z,969.40
2023-04-28T16:41:28.823Z,965.30
2023-04-28T16:43:55.593Z,963.67
2023-04-28T16:46:22.421Z,967.63
2023-04-28T16:48:49.596Z,967.55
2023-04-28T16:51:16.227Z,965.38
2023-04-28T16:53:42.862Z,961.38
2023-04-28T16:56:10.790Z,959.05
2023-04-28T16:58:37.934Z,960.30
2023-04-28T17:01:04.720Z,964.73
2023-04-28T17:03:31.520Z,958.63
2023-04-28T17:05:59.501Z,958.15
2023-04-28T17:08:26.706Z,958.38
2023-04-28T17:10:53.411Z,952.30
2023-04-28T17:13:20.070Z,957.90
2023-04-28T17:15:54.258Z,946.25
2023-04-28T17:18:21.175Z,947.20
2023-04-28T17:20:48.152Z,945.55
2023-04-28T17:23:15.137Z,946.55
2023-04-28T17:25:41.799Z,946.42
2023-04-28T17:28:08.479Z,952.38
2023-04-28T17:30:36.091Z,948.70
2023-04-28T17:33:03.077Z,936.60
2023-04-28T17:35:29.901Z,934.08
2023-04-28T17:37:56.924Z,934.38
2023-04-28T17:40:24.273Z,940.50
2023-04-28T17:42:51.496Z,937.38
2023-04-28T17:45:18.190Z,925.45
2023-04-28T17:47:44.805Z,936.78
2023-04-28T17:50:11.495Z,931.13
2023-04-28T17:52:38.850Z,925.05
2023-04-28T17:55:06.187Z,932.15
2023-04-28T17:57:32.989Z,929.95
2023-04-28T17:59:59.693Z,922.03
2023-04-28T18:02:26.765Z,924.13
2023-04-28T18:04:53.734Z,924.25
2023-04-28T18:07:20.667Z,925.27
2023-04-28T18:09:47.249Z,919.70
2023-04-28T18:12:13.920Z,930.33
2023-04-28T18:14:44.343Z,923.67
2023-04-28T18:17:11.094Z,925.47
2023-04-28T18:19:37.707Z,923.10
2023-04-28T18:22:04.327Z,922.55
2023-04-28T18:24:30.924Z,925.65
2023-04-28T18:26:57.584Z,927.40
2023-04-28T18:29:24.393Z,926.10
2023-04-28T18:31:51.351Z,926.95
2023-04-28T18:34:18.436Z,916.70
2023-04-28T18:36:45.240Z,919.92
2023-04-28T18:39:12.461Z,918.63
2023-04-28T18:41:40.114Z,916.00
2023-04-28T18:44:06.872Z,916.13
2023-04-28T18:46:34.532Z,922.00
2023-04-28T18:49:03.071Z,913.20
2023-04-28T18:51:29.825Z,919.33
2023-04-28T18:53:56.680Z,914.88
2023-04-28T18:56:24.495Z,915.83
2023-04-28T18:58:51.257Z,912.58
2023-04-28T19:01:18.306Z,918.72
2023-04-28T19:03:45.331Z,914.73
2023-04-28T19:06:12.691Z,914.22
2023-04-28T19:08:39.370Z,910.63
2023-04-28T19:11:09.552Z,911.80
2023-04-28T19:13:37.484Z,909.45
2023-04-28T19:16:05.247Z,910.38
2023-04-28T19:18:32.982Z,907.05
2023-04-28T19:21:00.792Z,908.33
2023-04-28T19:23:28.293Z,905.00
2023-04-28T19:25:56.831Z,907.83
2023-04-28T19:28:25.870Z,906.60
2023-04-28T19:30:57.113Z,907.83
2023-04-28T19:33:27.832Z,910.03
2023-04-28T19:35:55.209Z,909.95
2023-04-28T19:38:23.184Z,906.63
2023-04-28T19:40:51.010Z,917.22
2023-04-28T19:43:17.992Z,918.22
2023-04-28T19:45:46.550Z,918.00
2023-04-28T19:48:14.369Z,920.00
2023-04-28T19:50:41.991Z,921.70
2023-04-28T19:53:09.433Z,917.88
2023-04-28T19:55:36.927Z,919.22
2023-04-28T19:58:05.955Z,918.40
2023-04-28T20:00:32.921Z,922.20
2023-04-28T20:03:00.026Z,909.75
2023-04-28T20:05:27.223Z,912.90
2023-04-28T20:07:56.269Z,915.72
2023-04-28T20:10:24.052Z,915.53
2023-04-28T20:12:50.951Z,907.03
2023-04-28T20:15:18.063Z,910.50
2023-04-28T20:17:45.871Z,911.67
2023-04-28T20:20:12.907Z,913.83
2023-04-28T20:22:40.943Z,907.53
2023-04-28T20:25:10.299Z,909.63
2023-04-28T20:27:37.218Z,908.50
2023-04-28T20:30:04.831Z,908.45
2023-04-28T20:32:31.713Z,912.50
2023-04-28T20:34:58.527Z,911.05
2023-04-28T20:37:26.356Z,915.97
2023-04-28T20:39:53.490Z,914.45
2023-04-28T20:42:20.335Z,914.40
2023-04-28T20:44:47.121Z,914.27
2023-04-28T20:47:14.111Z,916.78
2023-04-28T20:49:42.265Z,922.00
2023-04-28T20:52:09.082Z,924.78
2023-04-28T20:54:36.410Z,916.47
2023-04-28T20:57:04.598Z,918.65
2023-04-28T20:59:32.787Z,924.15
2023-04-28T21:02:00.304Z,921.25
2023-04-28T21:04:28.404Z,923.15
2023-04-28T21:06:55.612Z,930.88
2023-04-28T21:09:25.112Z,923.50
2023-04-28T21:11:52.178Z,922.70
2023-04-28T21:14:19.207Z,929.25
2023-04-28T21:16:46.103Z,921.70
2023-04-28T21:19:13.026Z,924.50
2023-04-28T21:21:39.752Z,925.97
2023-04-28T21:24:07.967Z,924.07
2023-04-28T21:26:35.834Z,921.47
2023-04-28T21:29:02.917Z,930.05
2023-04-28T21:31:30.547Z,928.90
2023-04-28T21:33:57.559Z,922.40
2023-04-28T21:36:24.407Z,928.67
2023-04-28T21:38:51.514Z,930.60
2023-04-28T21:41:18.397Z,919.30
2023-04-28T21:43:45.141Z,927.03
2023-04-28T21:46:12.936Z,922.88
2023-04-28T21:48:39.772Z,917.55
2023-04-28T21:51:06.575Z,916.38
2023-04-28T21:53:33.457Z,914.75
2023-04-28T21:56:00.222Z,915.83
2023-04-28T21:58:27.091Z,922.05
2023-04-28T22:00:55.082Z,917.30
2023-04-28T22:03:22.410Z,913.40
2023-04-28T22:05:49.732Z,915.60
2023-04-28T22:08:17.073Z,921.75
2023-04-28T22:10:45.510Z,921.95
2023-04-28T22:13:15.890Z,921.10
2023-04-28T22:15:42.961Z,915.03
2023-04-28T22:18:09.746Z,918.25
2023-04-28T22:20:36.703Z,922.17
2023-04-28T22:23:03.574Z,917.55
2023-04-28T22:25:30.379Z,920.47
2023-04-28T22:27:57.174Z,919.77
2023-04-28T22:30:25.962Z,919.72
2023-04-28T22:32:53.223Z,921.92
2023-04-28T22:35:20.189Z,918.63
2023-04-28T22:37:46.896Z,918.83
2023-04-28T22:40:13.821Z,915.80
2023-04-28T22:42:41.833Z,916.55
2023-04-28T22:45:10.466Z,922.97
2023-04-28T22:47:40.428Z,915.58
2023-04-28T22:50:11.505Z,912.38
2023-04-28T22:52:38.526Z,912.47
2023-04-28T22:55:06.588Z,909.95
2023-04-28T22:57:33.443Z,915.20
2023-04-28T23:00:00.471Z,913.30
2023-04-28T23:02:27.277Z,914.92
2023-04-28T23:04:54.348Z,918.65
2023-04-28T23:07:21.263Z,917.22
2023-04-28T23:09:48.099Z,917.40
2023-04-28T23:12:15.051Z,914.67
2023-04-28T23:14:41.730Z,920.67
2023-04-28T23:17:08.515Z,913.58
2023-04-28T23:19:38.777Z,919.65
2023-04-28T23:22:07.078Z,922.65
2023-04-28T23:24:34.762Z,916.88
2023-04-28T23:27:01.752Z,916.45
2023-04-28T23:29:28.756Z,923.08
